createdAt,value
2018-05-25T00:01:33.021Z,2.10
2018-05-25T00:04:01.288Z,2.33
2018-05-25T00:06:31.558Z,2.30
2018-05-25T00:08:59.924Z,2.30
2018-05-25T00:11:28.190Z,2.20
2018-05-25T00:13:57.216Z,2.13
2018-05-25T00:16:25.487Z,1.87
2018-05-25T00:18:53.755Z,1.93
2018-05-25T00:21:22.021Z,2.37
2018-05-25T00:23:51.041Z,2.43
2018-05-25T00:26:19.311Z,2.40
2018-05-25T00:28:48.336Z,2.47
2018-05-25T00:31:16.610Z,2.30
2018-05-25T00:33:44.872Z,2.37
2018-05-25T00:36:13.893Z,2.00
2018-05-25T00:38:42.138Z,2.10
2018-05-25T00:41:11.169Z,2.07
2018-05-25T00:43:39.421Z,2.00
2018-05-25T00:46:08.444Z,2.30
2018-05-25T00:48:36.690Z,2.00
2018-05-25T00:51:05.714Z,2.03
2018-05-25T00:53:33.953Z,2.30
2018-05-25T00:56:02.989Z,2.10
2018-05-25T00:58:31.237Z,2.00
2018-05-25T01:01:00.252Z,1.90
2018-05-25T01:03:29.272Z,2.07
2018-05-25T01:05:57.524Z,2.10
2018-05-25T01:08:26.554Z,2.17
2018-05-25T01:10:54.818Z,2.10
2018-05-25T01:13:23.063Z,2.37
2018-05-25T01:15:52.833Z,2.40
2018-05-25T01:18:21.079Z,2.30
2018-05-25T01:20:50.104Z,2.47
2018-05-25T01:23:18.338Z,2.40
2018-05-25T01:25:47.363Z,2.10
2018-05-25T01:28:15.615Z,2.20
2018-05-25T01:30:44.634Z,2.35
2018-05-25T01:33:14.573Z,2.30
2018-05-25T01:35:42.835Z,2.27
2018-05-25T01:38:11.848Z,2.33
2018-05-25T01:40:40.096Z,2.53
2018-05-25T01:43:09.117Z,2.20
2018-05-25T01:45:37.366Z,2.27
2018-05-25T01:48:06.395Z,2.20
2018-05-25T01:50:34.644Z,2.00
2018-05-25T01:53:03.667Z,2.00
2018-05-25T01:55:32.773Z,2.00
2018-05-25T01:58:01.795Z,2.10
2018-05-25T02:00:30.037Z,2.10
2018-05-25T02:02:59.044Z,2.30
2018-05-25T02:05:27.307Z,1.97
2018-05-25T02:07:56.328Z,2.10
2018-05-25T02:10:24.597Z,2.30
2018-05-25T02:12:53.598Z,2.77
2018-05-25T02:15:21.860Z,2.50
2018-05-25T02:17:50.879Z,2.37
2018-05-25T02:20:19.134Z,2.72
2018-05-25T02:22:48.174Z,2.20
2018-05-25T02:28:16.239Z,2.17
2018-05-25T02:30:44.522Z,2.80
2018-05-25T02:33:12.779Z,2.50
2018-05-25T02:35:41.795Z,2.45
2018-05-25T02:38:10.816Z,2.53
2018-05-25T02:40:39.064Z,2.67
2018-05-25T02:43:08.084Z,2.70
2018-05-25T02:45:36.327Z,2.83
2018-05-25T02:48:05.352Z,2.43
2018-05-25T02:50:33.597Z,2.67
2018-05-25T02:53:03.351Z,2.70
2018-05-25T02:55:31.611Z,2.97
2018-05-25T02:58:00.633Z,2.70
2018-05-25T03:00:29.013Z,2.53
2018-05-25T03:02:58.118Z,2.63
2018-05-25T03:05:26.386Z,2.05
2018-05-25T03:07:55.394Z,2.20
2018-05-25T03:10:23.635Z,2.33
2018-05-25T03:12:52.672Z,2.43
2018-05-25T03:15:20.918Z,2.80
2018-05-25T03:17:50.683Z,2.20
2018-05-25T03:20:18.921Z,2.40
2018-05-25T03:22:47.946Z,2.40
2018-05-25T03:25:16.186Z,2.90
2018-05-25T03:27:45.222Z,2.40
2018-05-25T03:30:13.471Z,2.90
2018-05-25T03:32:42.504Z,3.00
2018-05-25T03:35:10.754Z,2.60
2018-05-25T03:37:39.891Z,2.50
2018-05-25T03:40:08.131Z,2.67
2018-05-25T03:42:37.157Z,2.83
2018-05-25T03:45:05.399Z,2.73
2018-05-25T03:47:35.162Z,2.83
2018-05-25T03:50:03.407Z,2.70
2018-05-25T03:52:32.423Z,2.30
2018-05-25T03:55:00.690Z,2.93
2018-05-25T03:57:29.711Z,2.60
2018-05-25T04:00:15.964Z,2.57
2018-05-25T04:02:46.220Z,2.60
2018-05-25T04:05:14.470Z,2.57
2018-05-25T04:07:44.342Z,2.73
2018-05-25T04:10:12.605Z,2.73
2018-05-25T04:12:40.849Z,2.90
2018-05-25T04:15:09.873Z,2.70
2018-05-25T04:17:38.965Z,3.03
2018-05-25T04:20:07.990Z,2.87
2018-05-25T04:22:36.234Z,2.43
2018-05-25T04:25:05.259Z,2.87
2018-05-25T04:27:33.510Z,2.90
2018-05-25T04:30:02.522Z,2.93
2018-05-25T04:32:31.563Z,2.73
2018-05-25T04:34:59.823Z,2.80
2018-05-25T04:37:28.078Z,2.87
2018-05-25T04:39:57.103Z,2.70
2018-05-25T04:42:25.349Z,2.37
2018-05-25T04:44:54.383Z,2.80
2018-05-25T04:47:22.635Z,2.70
2018-05-25T04:49:51.659Z,2.67
2018-05-25T04:52:19.922Z,2.57
2018-05-25T04:54:48.957Z,2.70
2018-05-25T04:57:17.300Z,2.33
2018-05-25T04:59:45.579Z,2.50
2018-05-25T05:02:14.591Z,2.50
2018-05-25T05:04:42.860Z,2.00
2018-05-25T05:07:11.158Z,2.40
2018-05-25T05:09:39.435Z,2.40
2018-05-25T05:12:07.682Z,2.30
2018-05-25T05:14:36.727Z,2.40
2018-05-25T05:17:04.995Z,2.30
2018-05-25T05:19:33.257Z,2.62
2018-05-25T05:22:01.521Z,2.75
2018-05-25T05:24:30.551Z,2.60
2018-05-25T05:26:58.809Z,2.90
2018-05-25T05:29:27.843Z,2.90
2018-05-25T05:31:56.092Z,2.85
2018-05-25T05:34:25.131Z,2.80
2018-05-25T05:36:53.388Z,3.00
2018-05-25T05:39:21.638Z,2.95
2018-05-25T05:41:50.968Z,2.90
2018-05-25T05:44:19.222Z,2.50
2018-05-25T05:46:48.251Z,2.67
2018-05-25T05:49:16.532Z,2.47
2018-05-25T05:51:44.786Z,2.50
2018-05-25T05:54:13.823Z,2.70
2018-05-25T05:56:42.078Z,2.37
2018-05-25T05:59:10.714Z,2.40
2018-05-25T06:01:38.979Z,2.10
2018-05-25T06:04:07.237Z,2.30
2018-05-25T06:06:35.506Z,2.37
2018-05-25T06:09:06.059Z,2.20
2018-05-25T06:11:34.544Z,2.28
2018-05-25T06:14:02.809Z,2.45
2018-05-25T06:16:31.075Z,2.30
2018-05-25T06:19:00.099Z,2.37
2018-05-25T06:21:28.366Z,2.25
2018-05-25T06:23:56.633Z,2.20
2018-05-25T06:26:25.669Z,2.10
2018-05-25T06:28:53.928Z,2.30
2018-05-25T06:31:22.200Z,2.10
2018-05-25T06:33:51.223Z,2.30
2018-05-25T06:36:19.485Z,2.40
2018-05-25T06:38:47.742Z,2.23
2018-05-25T06:41:16.782Z,2.70
2018-05-25T06:43:45.044Z,2.28
2018-05-25T06:46:13.301Z,2.15
2018-05-25T06:48:42.423Z,2.40
2018-05-25T06:51:10.698Z,2.40
2018-05-25T06:53:38.960Z,2.40
2018-05-25T06:56:07.994Z,2.45
2018-05-25T06:58:36.251Z,2.17
2018-05-25T07:01:05.287Z,2.30
2018-05-25T07:03:33.536Z,1.92
2018-05-25T07:06:01.807Z,2.40
2018-05-25T07:08:30.840Z,2.30
2018-05-25T07:10:59.122Z,2.20
2018-05-25T07:13:27.393Z,2.20
2018-05-25T07:15:55.654Z,2.35
2018-05-25T07:18:23.910Z,2.00
2018-05-25T07:20:53.688Z,2.10
2018-05-25T07:23:21.939Z,2.00
2018-05-25T07:25:52.118Z,1.88
2018-05-25T07:28:20.336Z,2.15
2018-05-25T07:30:48.614Z,2.33
2018-05-25T07:33:17.991Z,2.30
2018-05-25T07:35:46.223Z,2.30
2018-05-25T07:38:14.484Z,2.20
2018-05-25T07:40:43.512Z,2.50
2018-05-25T07:43:11.864Z,2.40
2018-05-25T07:45:40.120Z,2.30
2018-05-25T07:48:09.156Z,2.50
2018-05-25T07:50:37.411Z,2.78
2018-05-25T07:53:06.443Z,2.50
2018-05-25T07:55:34.698Z,2.65
2018-05-25T07:58:03.606Z,2.50
2018-05-25T08:00:31.866Z,3.35
2018-05-25T08:03:00.899Z,3.12
2018-05-25T08:05:29.154Z,2.70
2018-05-25T08:07:57.427Z,2.58
2018-05-25T08:10:26.456Z,2.80
2018-05-25T08:12:54.729Z,2.87
2018-05-25T08:15:22.983Z,2.50
2018-05-25T08:17:52.015Z,2.40
2018-05-25T08:20:20.262Z,2.70
2018-05-25T08:22:49.291Z,2.40
2018-05-25T08:25:17.548Z,2.13
2018-05-25T08:27:46.601Z,2.40
2018-05-25T08:30:15.987Z,2.50
2018-05-25T08:32:44.250Z,2.83
2018-05-25T08:35:12.503Z,2.67
2018-05-25T08:37:42.018Z,2.43
2018-05-25T08:40:11.048Z,2.80
2018-05-25T08:42:39.367Z,2.60
2018-05-25T08:45:09.128Z,2.50
2018-05-25T08:47:37.394Z,2.40
2018-05-25T08:50:06.419Z,2.37
2018-05-25T08:52:34.687Z,2.08
2018-05-25T08:55:03.007Z,2.30
2018-05-25T08:57:31.227Z,2.17
2018-05-25T09:00:00.269Z,2.23
2018-05-25T09:02:28.519Z,2.08
2018-05-25T09:04:56.806Z,2.20
2018-05-25T09:07:25.077Z,2.60
2018-05-25T09:09:54.167Z,2.10
2018-05-25T09:12:23.246Z,2.30
2018-05-25T09:14:51.475Z,2.17
2018-05-25T09:17:19.739Z,2.13
2018-05-25T09:19:48.575Z,2.40
2018-05-25T09:22:17.565Z,2.05
2018-05-25T09:24:45.831Z,2.10
2018-05-25T09:27:14.087Z,2.00
2018-05-25T09:29:42.356Z,2.00
2018-05-25T09:32:11.375Z,1.83
2018-05-25T09:34:39.651Z,2.20
2018-05-25T09:37:07.904Z,2.15
2018-05-25T09:39:36.935Z,2.25
2018-05-25T09:42:05.196Z,1.70
2018-05-25T09:44:34.263Z,1.98
2018-05-25T09:47:03.280Z,1.90
2018-05-25T09:49:32.327Z,2.23
2018-05-25T09:52:00.583Z,2.57
2018-05-25T09:54:28.834Z,2.65
2018-05-25T09:57:00.712Z,2.60
2018-05-25T09:59:29.736Z,2.60
2018-05-25T10:01:58.019Z,2.20
2018-05-25T10:04:26.282Z,2.10
2018-05-25T10:06:54.558Z,2.03
2018-05-25T10:09:23.664Z,2.20
2018-05-25T10:11:52.761Z,2.00
2018-05-25T10:14:21.786Z,1.93
2018-05-25T10:16:50.038Z,2.00
2018-05-25T10:19:18.302Z,2.10
2018-05-25T10:21:47.419Z,2.30
2018-05-25T10:24:15.690Z,1.90
2018-05-25T10:26:44.722Z,1.93
2018-05-25T10:29:12.979Z,2.10
2018-05-25T10:31:42.010Z,2.03
2018-05-25T10:34:10.279Z,2.00
2018-05-25T10:36:38.538Z,2.10
2018-05-25T10:39:07.574Z,2.10
2018-05-25T10:41:35.825Z,2.12
2018-05-25T10:44:04.094Z,1.98
2018-05-25T10:46:32.374Z,1.87
2018-05-25T10:49:01.415Z,2.07
2018-05-25T10:51:30.286Z,1.90
2018-05-25T10:53:58.563Z,2.20
2018-05-25T10:56:26.818Z,2.03
2018-05-25T10:58:55.847Z,2.00
2018-05-25T11:01:24.104Z,1.92
2018-05-25T11:03:53.130Z,2.10
2018-05-25T11:06:21.384Z,2.10
2018-05-25T11:08:50.492Z,2.10
2018-05-25T11:11:18.747Z,2.15
2018-05-25T11:13:47.788Z,1.92
2018-05-25T11:16:16.048Z,1.90
2018-05-25T11:18:44.319Z,1.90
2018-05-25T11:21:13.423Z,1.93
2018-05-25T11:23:42.115Z,2.00
2018-05-25T11:26:10.389Z,2.00
2018-05-25T11:28:39.403Z,2.12
2018-05-25T11:31:07.671Z,2.00
2018-05-25T11:33:36.776Z,2.00
2018-05-25T11:36:05.032Z,2.03
2018-05-25T11:38:34.358Z,2.07
2018-05-25T11:41:02.640Z,1.97
2018-05-25T11:43:30.924Z,1.87
2018-05-25T11:45:59.184Z,2.10
2018-05-25T11:48:28.218Z,2.08
2018-05-25T11:50:56.476Z,1.97
2018-05-25T11:53:25.492Z,2.10
2018-05-25T11:55:53.779Z,2.00
2018-05-25T11:58:22.042Z,1.73
2018-05-25T12:00:51.063Z,2.10
2018-05-25T12:03:19.319Z,2.13
2018-05-25T12:05:47.587Z,2.00
2018-05-25T12:08:16.618Z,1.80
2018-05-25T12:10:44.885Z,1.87
2018-05-25T12:13:13.149Z,2.00
2018-05-25T12:15:42.259Z,1.90
2018-05-25T12:18:10.511Z,1.92
2018-05-25T12:20:39.543Z,2.13
2018-05-25T12:23:07.799Z,2.30
2018-05-25T12:25:36.839Z,2.20
2018-05-25T12:28:05.317Z,2.10
2018-05-25T12:30:34.324Z,2.20
2018-05-25T12:33:02.571Z,2.10
2018-05-25T12:35:31.598Z,2.40
2018-05-25T12:37:59.870Z,2.30
2018-05-25T12:40:28.167Z,2.00
2018-05-25T12:42:57.231Z,2.10
2018-05-25T12:45:25.514Z,1.90
2018-05-25T12:47:53.766Z,2.08
2018-05-25T12:50:22.809Z,2.30
2018-05-25T12:52:51.067Z,1.90
2018-05-25T12:55:20.106Z,1.77
2018-05-25T12:57:48.377Z,2.10
2018-05-25T13:00:18.109Z,1.96
2018-05-25T13:02:46.377Z,2.03
2018-05-25T13:05:14.635Z,1.80
2018-05-25T13:07:42.891Z,2.27
2018-05-25T13:10:11.932Z,1.80
2018-05-25T13:12:40.285Z,1.90
2018-05-25T13:15:08.539Z,2.00
2018-05-25T13:17:37.563Z,2.10
2018-05-25T13:20:05.829Z,2.05
2018-05-25T13:22:34.862Z,1.92
2018-05-25T13:25:03.133Z,1.80
2018-05-25T13:27:31.395Z,2.27
2018-05-25T13:30:00.419Z,2.13
2018-05-25T13:32:30.138Z,2.02
2018-05-25T13:34:58.404Z,1.95
2018-05-25T13:37:26.675Z,1.80
2018-05-25T13:39:55.774Z,2.07
2018-05-25T13:42:24.035Z,1.85
2018-05-25T13:44:53.067Z,2.05
2018-05-25T13:47:21.335Z,2.00
2018-05-25T13:49:50.355Z,2.20
2018-05-25T13:52:18.615Z,2.10
2018-05-25T13:54:46.876Z,2.40
2018-05-25T13:57:15.910Z,2.20
2018-05-25T13:59:44.171Z,2.00
2018-05-25T14:02:12.446Z,1.90
2018-05-25T14:04:41.474Z,2.20
2018-05-25T14:07:09.732Z,2.20
2018-05-25T14:09:37.982Z,2.00
2018-05-25T14:12:06.251Z,2.30
2018-05-25T14:14:35.283Z,2.15
2018-05-25T14:17:04.311Z,1.90
2018-05-25T14:19:32.565Z,2.20
2018-05-25T14:22:01.613Z,1.93
2018-05-25T14:24:29.873Z,2.20
2018-05-25T14:26:58.237Z,2.12
2018-05-25T14:29:26.483Z,2.20
2018-05-25T14:31:56.247Z,2.23
2018-05-25T14:34:24.526Z,2.56
2018-05-25T14:36:53.854Z,1.90
2018-05-25T14:39:22.194Z,2.30
2018-05-25T14:41:50.443Z,2.20
2018-05-25T14:44:20.209Z,2.10
2018-05-25T14:46:48.468Z,2.40
2018-05-25T14:49:17.159Z,2.12
2018-05-25T14:51:45.416Z,2.00
2018-05-25T14:54:14.430Z,2.10
2018-05-25T14:56:43.470Z,2.20
2018-05-25T14:59:11.725Z,2.20
2018-05-25T15:01:40.130Z,2.30
2018-05-25T15:04:08.389Z,2.20
2018-05-25T15:06:36.695Z,2.30
2018-05-25T15:09:06.466Z,2.00
2018-05-25T15:11:34.728Z,2.37
2018-05-25T15:14:03.760Z,2.22
2018-05-25T15:16:32.007Z,2.13
2018-05-25T15:19:01.131Z,2.10
2018-05-25T15:21:29.399Z,2.05
2018-05-25T15:23:58.424Z,2.13
2018-05-25T15:26:26.675Z,2.10
2018-05-25T15:28:55.750Z,2.10
2018-05-25T15:31:23.963Z,2.15
2018-05-25T15:33:53.067Z,2.08
2018-05-25T15:36:21.321Z,2.20
2018-05-25T15:38:51.167Z,2.10
2018-05-25T15:41:19.475Z,2.00
2018-05-25T15:43:47.822Z,2.10
2018-05-25T15:46:16.853Z,2.27
2018-05-25T15:48:45.105Z,2.30
2018-05-25T15:51:14.119Z,2.40
2018-05-25T15:53:42.378Z,2.45
2018-05-25T15:56:11.398Z,2.17
2018-05-25T15:58:39.668Z,2.33
2018-05-25T16:01:07.931Z,2.50
2018-05-25T16:03:37.062Z,2.53
2018-05-25T16:06:05.322Z,2.60
2018-05-25T16:08:33.613Z,2.80
2018-05-25T16:11:01.859Z,2.70
2018-05-25T16:13:31.369Z,2.70
2018-05-25T16:15:59.630Z,3.05
2018-05-25T16:18:28.671Z,3.73
2018-05-25T16:20:57.692Z,3.20
2018-05-25T16:23:25.959Z,3.47
2018-05-25T16:25:54.224Z,4.07
2018-05-25T16:28:23.266Z,4.03
2018-05-25T16:30:51.569Z,4.37
2018-05-25T16:33:19.778Z,4.35
2018-05-25T16:35:48.800Z,4.30
2018-05-25T16:38:17.077Z,5.20
2018-05-25T16:40:45.322Z,5.20
2018-05-25T16:43:13.572Z,4.80
2018-05-25T16:45:43.080Z,4.57
2018-05-25T16:48:11.364Z,4.85
2018-05-25T16:50:39.611Z,4.83
2018-05-25T16:53:07.880Z,4.40
2018-05-25T16:55:36.774Z,4.20
2018-05-25T16:58:05.028Z,4.32
2018-05-25T17:00:34.064Z,4.80
2018-05-25T17:03:02.327Z,4.27
2018-05-25T17:05:31.346Z,4.53
2018-05-25T17:08:00.453Z,4.10
2018-05-25T17:10:28.704Z,4.90
2018-05-25T17:12:57.769Z,4.13
2018-05-25T17:15:25.996Z,4.13
2018-05-25T17:17:55.025Z,4.42
2018-05-25T17:20:23.278Z,4.78
2018-05-25T17:22:51.554Z,4.50
2018-05-25T17:25:19.823Z,4.23
2018-05-25T17:27:49.240Z,4.57
2018-05-25T17:30:17.511Z,3.95
2018-05-25T17:32:45.771Z,4.03
2018-05-25T17:35:14.799Z,4.07
2018-05-25T17:37:43.047Z,3.92
2018-05-25T17:40:11.313Z,3.92
2018-05-25T17:42:39.572Z,4.07
2018-05-25T17:45:07.839Z,3.57
2018-05-25T17:47:36.095Z,4.37
2018-05-25T17:50:04.370Z,3.80
2018-05-25T17:52:32.654Z,4.20
2018-05-25T17:55:00.918Z,3.90
2018-05-25T17:57:29.958Z,3.37
2018-05-25T17:59:58.229Z,3.70
2018-05-25T18:02:26.492Z,4.12
2018-05-25T18:04:55.529Z,3.90
2018-05-25T18:07:23.787Z,4.17
2018-05-25T18:09:52.579Z,3.78
2018-05-25T18:12:21.152Z,3.37
2018-05-25T18:14:50.171Z,3.60
2018-05-25T18:17:18.456Z,3.70
2018-05-25T18:19:46.711Z,3.12
2018-05-25T18:22:14.982Z,3.28
2018-05-25T18:24:44.090Z,3.30
2018-05-25T18:27:12.362Z,2.93
2018-05-25T18:29:41.425Z,3.58
2018-05-25T18:32:09.675Z,3.05
2018-05-25T18:34:37.947Z,3.65
2018-05-25T18:37:06.199Z,3.40
2018-05-25T18:39:35.233Z,3.43
2018-05-25T18:42:04.838Z,3.64
2018-05-25T18:44:33.104Z,4.03
2018-05-25T18:47:01.372Z,5.37
2018-05-25T18:49:30.402Z,3.43
2018-05-25T18:51:58.671Z,5.20
2018-05-25T18:54:33.810Z,6.28
2018-05-25T18:57:02.079Z,4.53
2018-05-25T18:59:30.354Z,3.00
2018-05-25T19:01:59.369Z,3.47
2018-05-25T19:04:27.634Z,3.30
2018-05-25T19:06:55.926Z,3.40
2018-05-25T19:09:24.202Z,3.30
2018-05-25T19:11:52.482Z,3.27
2018-05-25T19:14:20.738Z,3.77
2018-05-25T19:16:51.108Z,3.40
2018-05-25T19:19:19.370Z,3.35
2018-05-25T19:21:47.640Z,3.50
2018-05-25T19:24:16.655Z,3.70
2018-05-25T19:26:44.991Z,4.12
2018-05-25T19:29:13.203Z,4.00
2018-05-25T19:31:42.229Z,3.97
2018-05-25T19:34:10.486Z,3.90
2018-05-25T19:36:38.804Z,4.28
2018-05-25T19:39:07.061Z,4.43
2018-05-25T19:41:35.331Z,4.33
2018-05-25T19:44:03.782Z,3.83
2018-05-25T19:46:32.007Z,4.05
2018-05-25T19:49:00.260Z,4.00
2018-05-25T19:51:29.309Z,3.93
2018-05-25T19:53:57.565Z,4.07
2018-05-25T19:56:25.832Z,3.53
2018-05-25T19:58:54.090Z,3.80
2018-05-25T20:01:23.124Z,3.83
2018-05-25T20:03:51.377Z,4.10
2018-05-25T20:06:20.409Z,4.43
2018-05-25T20:08:48.664Z,4.30
2018-05-25T20:11:17.687Z,4.67
2018-05-25T20:13:45.951Z,4.33
2018-05-25T20:16:14.250Z,4.45
2018-05-25T20:18:43.239Z,4.47
2018-05-25T20:21:11.505Z,4.10
2018-05-25T20:23:39.759Z,4.17
2018-05-25T20:26:08.791Z,4.53
2018-05-25T20:28:37.038Z,4.20
2018-05-25T20:31:06.970Z,4.05
2018-05-25T20:33:36.080Z,4.27
2018-05-25T20:36:04.349Z,3.73
2018-05-25T20:38:33.454Z,4.10
2018-05-25T20:41:02.493Z,4.20
2018-05-25T20:43:30.748Z,4.07
2018-05-25T20:45:59.013Z,4.53
2018-05-25T20:48:28.144Z,4.67
2018-05-25T20:50:56.417Z,4.33
2018-05-25T20:53:26.327Z,4.28
2018-05-25T20:55:54.590Z,4.83
2018-05-25T20:58:23.699Z,4.93
2018-05-25T21:00:51.979Z,4.60
2018-05-25T21:03:20.996Z,4.93
2018-05-25T21:05:49.285Z,4.47
2018-05-25T21:08:17.526Z,4.53
2018-05-25T21:10:46.555Z,4.50
2018-05-25T21:13:14.816Z,4.82
2018-05-25T21:15:43.094Z,4.67
2018-05-25T21:18:12.118Z,4.50
2018-05-25T21:20:40.385Z,4.43
2018-05-25T21:23:08.638Z,4.90
2018-05-25T21:25:37.670Z,4.63
2018-05-25T21:28:05.926Z,5.07
2018-05-25T21:30:34.964Z,5.20
2018-05-25T21:33:03.210Z,5.00
2018-05-25T21:35:32.307Z,4.63
2018-05-25T21:38:01.348Z,4.90
2018-05-25T21:40:29.612Z,4.67
2018-05-25T21:42:57.868Z,4.37
2018-05-25T21:45:26.636Z,4.30
2018-05-25T21:47:56.521Z,4.43
2018-05-25T21:50:24.785Z,4.60
2018-05-25T21:52:53.064Z,4.37
2018-05-25T21:55:21.314Z,5.17
2018-05-25T21:57:50.350Z,4.30
2018-05-25T22:00:18.612Z,4.77
2018-05-25T22:02:47.042Z,4.73
2018-05-25T22:05:16.809Z,5.03
2018-05-25T22:07:45.075Z,4.67
2018-05-25T22:10:14.118Z,5.10
2018-05-25T22:12:42.375Z,4.97
2018-05-25T22:15:10.630Z,4.73
2018-05-25T22:17:39.661Z,4.47
2018-05-25T22:20:07.914Z,5.23
2018-05-25T22:22:36.191Z,4.13
2018-05-25T22:25:05.205Z,5.30
2018-05-25T22:27:33.472Z,4.90
2018-05-25T22:30:02.489Z,4.80
2018-05-25T22:32:30.762Z,4.60
2018-05-25T22:34:59.024Z,4.53
2018-05-25T22:37:28.051Z,4.50
2018-05-25T22:39:56.307Z,4.77
2018-05-25T22:42:42.565Z,4.90
2018-05-25T22:45:30.296Z,4.63
2018-05-25T22:48:17.048Z,4.47
2018-05-25T22:51:03.210Z,4.70
2018-05-25T22:53:37.067Z,4.47
2018-05-25T22:56:05.321Z,4.50
2018-05-25T22:58:33.606Z,4.57
2018-05-25T23:01:02.610Z,4.27
2018-05-25T23:03:31.003Z,4.90
2018-05-25T23:05:59.352Z,4.95
2018-05-25T23:08:27.629Z,4.93
2018-05-25T23:10:55.904Z,5.30
2018-05-25T23:13:24.926Z,4.97
2018-05-25T23:15:53.191Z,4.83
2018-05-25T23:18:21.456Z,4.78
2018-05-25T23:20:51.714Z,4.90
2018-05-25T23:23:19.995Z,4.53
2018-05-25T23:25:48.243Z,4.80
2018-05-25T23:28:17.370Z,4.75
2018-05-25T23:30:45.627Z,4.40
2018-05-25T23:33:14.655Z,5.00
2018-05-25T23:35:42.910Z,4.90
2018-05-25T23:38:12.023Z,5.53
2018-05-25T23:40:40.272Z,4.57
2018-05-25T23:43:09.315Z,4.27
2018-05-25T23:45:37.570Z,5.10
2018-05-25T23:48:05.840Z,4.80
2018-05-25T23:50:34.860Z,4.73
2018-05-25T23:53:03.835Z,4.82
2018-05-25T23:55:32.853Z,4.53
2018-05-25T23:58:01.123Z,4.53
